sensor_id;sensor_type;location;lat;lon;timestamp;pressure;altitude;pressure_sealevel;temperature;humidity
64192;BME280;50497;50.720;-2.084;2022-08-14T00:01:05;100946.09;;;18.71;100.00
64192;BME280;50497;50.720;-2.084;2022-08-14T00:03:31;100943.00;;;18.64;100.00
64192;BME280;50497;50.720;-2.084;2022-08-14T00:05:58;100936.97;;;18.60;100.00
64192;BME280;50497;50.720;-2.084;2022-08-14T00:08:25;100925.47;;;18.45;100.00
64192;BME280;50497;50.720;-2.084;2022-08-14T00:10:51;100935.72;;;18.53;100.00
64192;BME280;50497;50.720;-2.084;2022-08-14T00:13:21;100926.88;;;18.51;100.00
64192;BME280;50497;50.720;-2.084;2022-08-14T00:15:48;100924.00;;;18.41;100.00
64192;BME280;50497;50.720;-2.084;2022-08-14T00:18:23;100925.09;;;18.39;100.00
64192;BME280;50497;50.720;-2.084;2022-08-14T00:20:49;100926.16;;;18.25;100.00
64192;BME280;50497;50.720;-2.084;2022-08-14T00:23:17;100913.00;;;18.32;100.00
64192;BME280;50497;50.720;-2.084;2022-08-14T00:25:49;100914.97;;;18.30;100.00
64192;BME280;50497;50.720;-2.084;2022-08-14T00:28:15;100908.69;;;18.29;100.00
64192;BME280;50497;50.720;-2.084;2022-08-14T00:30:41;100907.09;;;18.26;100.00
64192;BME280;50497;50.720;-2.084;2022-08-14T00:33:06;100895.09;;;18.18;100.00
64192;BME280;50497;50.720;-2.084;2022-08-14T00:35:32;100906.06;;;18.16;100.00
64192;BME280;50497;50.720;-2.084;2022-08-14T00:37:58;100895.38;;;18.15;100.00
64192;BME280;50497;50.720;-2.084;2022-08-14T00:40:24;100899.38;;;18.09;100.00
64192;BME280;50497;50.720;-2.084;2022-08-14T00:42:50;100895.19;;;18.05;100.00
64192;BME280;50497;50.720;-2.084;2022-08-14T00:45:16;100898.53;;;18.08;100.00
64192;BME280;50497;50.720;-2.084;2022-08-14T00:47:43;100888.00;;;17.92;100.00
64192;BME280;50497;50.720;-2.084;2022-08-14T00:50:11;100888.63;;;17.96;100.00
64192;BME280;50497;50.720;-2.084;2022-08-14T00:52:38;100893.41;;;17.92;100.00
64192;BME280;50497;50.720;-2.084;2022-08-14T00:55:06;100890.97;;;18.01;100.00
64192;BME280;50497;50.720;-2.084;2022-08-14T00:57:34;100895.56;;;18.00;100.00
64192;BME280;50497;50.720;-2.084;2022-08-14T01:00:01;100879.25;;;17.89;100.00
64192;BME280;50497;50.720;-2.084;2022-08-14T01:02:28;100884.97;;;17.84;100.00
64192;BME280;50497;50.720;-2.084;2022-08-14T01:04:57;100885.53;;;17.89;100.00
64192;BME280;50497;50.720;-2.084;2022-08-14T01:07:25;100874.03;;;17.86;100.00
64192;BME280;50497;50.720;-2.084;2022-08-14T01:09:59;100868.22;;;17.79;100.00
64192;BME280;50497;50.720;-2.084;2022-08-14T01:12:27;100873.31;;;17.84;100.00
64192;BME280;50497;50.720;-2.084;2022-08-14T01:14:53;100867.44;;;17.66;100.00
64192;BME280;50497;50.720;-2.084;2022-08-14T01:17:22;100873.97;;;17.74;100.00
64192;BME280;50497;50.720;-2.084;2022-08-14T01:20:07;100858.97;;;17.70;100.00
64192;BME280;50497;50.720;-2.084;2022-08-14T01:22:51;100860.81;;;17.70;100.00
64192;BME280;50497;50.720;-2.084;2022-08-14T01:25:17;100866.47;;;17.67;100.00
64192;BME280;50497;50.720;-2.084;2022-08-14T01:27:43;100847.97;;;17.61;100.00
64192;BME280;50497;50.720;-2.084;2022-08-14T01:30:08;100863.13;;;17.63;100.00
64192;BME280;50497;50.720;-2.084;2022-08-14T01:32:34;100848.44;;;17.54;100.00
64192;BME280;50497;50.720;-2.084;2022-08-14T01:35:03;100846.13;;;17.61;100.00
64192;BME280;50497;50.720;-2.084;2022-08-14T01:37:31;100839.78;;;17.49;100.00
64192;BME280;50497;50.720;-2.084;2022-08-14T01:39:57;100838.38;;;17.57;100.00
64192;BME280;50497;50.720;-2.084;2022-08-14T01:42:22;100830.84;;;17.49;100.00
64192;BME280;50497;50.720;-2.084;2022-08-14T01:44:49;100834.50;;;17.48;100.00
64192;BME280;50497;50.720;-2.084;2022-08-14T01:47:22;100823.28;;;17.41;100.00
64192;BME280;50497;50.720;-2.084;2022-08-14T01:49:50;100822.88;;;17.34;100.00
64192;BME280;50497;50.720;-2.084;2022-08-14T01:52:16;100828.28;;;17.34;100.00
64192;BME280;50497;50.720;-2.084;2022-08-14T01:54:44;100831.75;;;17.36;100.00
64192;BME280;50497;50.720;-2.084;2022-08-14T01:57:10;100830.34;;;17.31;100.00
64192;BME280;50497;50.720;-2.084;2022-08-14T01:59:36;100818.06;;;17.27;100.00
64192;BME280;50497;50.720;-2.084;2022-08-14T02:02:11;100824.63;;;17.35;100.00
64192;BME280;50497;50.720;-2.084;2022-08-14T02:04:38;100807.88;;;17.30;100.00
64192;BME280;50497;50.720;-2.084;2022-08-14T02:07:05;100806.75;;;17.33;100.00
64192;BME280;50497;50.720;-2.084;2022-08-14T02:09:32;100811.53;;;17.29;100.00
64192;BME280;50497;50.720;-2.084;2022-08-14T02:12:00;100818.41;;;17.22;100.00
64192;BME280;50497;50.720;-2.084;2022-08-14T02:14:26;100813.44;;;17.16;100.00
64192;BME280;50497;50.720;-2.084;2022-08-14T02:16:53;100816.75;;;17.20;100.00
64192;BME280;50497;50.720;-2.084;2022-08-14T02:19:20;100811.25;;;17.21;100.00
64192;BME280;50497;50.720;-2.084;2022-08-14T02:21:47;100811.84;;;17.13;100.00
64192;BME280;50497;50.720;-2.084;2022-08-14T02:24:14;100808.34;;;17.11;100.00
64192;BME280;50497;50.720;-2.084;2022-08-14T02:26:41;100806.13;;;17.05;100.00
64192;BME280;50497;50.720;-2.084;2022-08-14T02:29:13;100811.53;;;17.05;100.00
64192;BME280;50497;50.720;-2.084;2022-08-14T02:31:45;100810.25;;;16.98;100.00
64192;BME280;50497;50.720;-2.084;2022-08-14T02:34:17;100819.56;;;16.94;100.00
64192;BME280;50497;50.720;-2.084;2022-08-14T02:36:45;100818.81;;;16.92;100.00
64192;BME280;50497;50.720;-2.084;2022-08-14T02:39:12;100818.41;;;16.85;100.00
64192;BME280;50497;50.720;-2.084;2022-08-14T02:41:38;100816.31;;;16.76;100.00
64192;BME280;50497;50.720;-2.084;2022-08-14T02:44:06;100826.50;;;16.85;100.00
64192;BME280;50497;50.720;-2.084;2022-08-14T02:46:34;100816.56;;;16.86;100.00
64192;BME280;50497;50.720;-2.084;2022-08-14T02:49:00;100818.28;;;16.87;100.00
64192;BME280;50497;50.720;-2.084;2022-08-14T02:51:26;100806.59;;;16.73;100.00
64192;BME280;50497;50.720;-2.084;2022-08-14T02:53:54;100822.69;;;16.75;100.00
64192;BME280;50497;50.720;-2.084;2022-08-14T02:56:20;100824.00;;;16.82;100.00
64192;BME280;50497;50.720;-2.084;2022-08-14T02:58:48;100813.41;;;16.79;100.00
64192;BME280;50497;50.720;-2.084;2022-08-14T03:01:16;100811.56;;;16.79;100.00
64192;BME280;50497;50.720;-2.084;2022-08-14T03:03:44;100821.72;;;16.76;100.00
64192;BME280;50497;50.720;-2.084;2022-08-14T03:06:12;100809.44;;;16.72;100.00
64192;BME280;50497;50.720;-2.084;2022-08-14T03:08:42;100811.91;;;16.62;100.00
64192;BME280;50497;50.720;-2.084;2022-08-14T03:11:10;100805.31;;;16.53;100.00
64192;BME280;50497;50.720;-2.084;2022-08-14T03:13:38;100806.19;;;16.54;100.00
64192;BME280;50497;50.720;-2.084;2022-08-14T03:16:06;100812.13;;;16.59;100.00
64192;BME280;50497;50.720;-2.084;2022-08-14T03:18:33;100787.19;;;16.42;100.00
64192;BME280;50497;50.720;-2.084;2022-08-14T03:20:59;100793.78;;;16.51;100.00
64192;BME280;50497;50.720;-2.084;2022-08-14T03:23:25;100795.09;;;16.46;100.00
64192;BME280;50497;50.720;-2.084;2022-08-14T03:25:52;100784.06;;;16.23;100.00
64192;BME280;50497;50.720;-2.084;2022-08-14T03:28:17;100792.84;;;16.14;100.00
64192;BME280;50497;50.720;-2.084;2022-08-14T03:30:43;100800.38;;;16.21;100.00
64192;BME280;50497;50.720;-2.084;2022-08-14T03:33:09;100806.94;;;16.04;100.00
64192;BME280;50497;50.720;-2.084;2022-08-14T03:35:36;100793.97;;;15.97;100.00
64192;BME280;50497;50.720;-2.084;2022-08-14T03:38:05;100811.59;;;16.02;100.00
64192;BME280;50497;50.720;-2.084;2022-08-14T03:40:33;100800.47;;;15.94;100.00
64192;BME280;50497;50.720;-2.084;2022-08-14T03:42:58;100799.03;;;15.88;100.00
64192;BME280;50497;50.720;-2.084;2022-08-14T03:45:24;100789.44;;;15.84;100.00
64192;BME280;50497;50.720;-2.084;2022-08-14T03:47:49;100785.63;;;15.74;100.00
64192;BME280;50497;50.720;-2.084;2022-08-14T03:50:15;100790.78;;;15.64;100.00
64192;BME280;50497;50.720;-2.084;2022-08-14T03:52:41;100785.19;;;15.67;100.00
64192;BME280;50497;50.720;-2.084;2022-08-14T03:55:10;100779.22;;;15.62;100.00
64192;BME280;50497;50.720;-2.084;2022-08-14T03:57:38;100782.78;;;15.63;100.00
64192;BME280;50497;50.720;-2.084;2022-08-14T04:00:07;100786.03;;;15.68;100.00
64192;BME280;50497;50.720;-2.084;2022-08-14T04:02:36;100771.91;;;15.64;100.00
64192;BME280;50497;50.720;-2.084;2022-08-14T04:05:06;100769.31;;;15.63;100.00
64192;BME280;50497;50.720;-2.084;2022-08-14T04:07:32;100774.38;;;15.67;100.00
64192;BME280;50497;50.720;-2.084;2022-08-14T04:09:59;100768.00;;;15.68;100.00
64192;BME280;50497;50.720;-2.084;2022-08-14T04:12:25;100764.75;;;15.63;100.00
64192;BME280;50497;50.720;-2.084;2022-08-14T04:14:51;100761.75;;;15.68;100.00
64192;BME280;50497;50.720;-2.084;2022-08-14T04:17:18;100755.91;;;15.61;100.00
64192;BME280;50497;50.720;-2.084;2022-08-14T04:19:44;100752.03;;;15.52;100.00
64192;BME280;50497;50.720;-2.084;2022-08-14T04:22:10;100758.72;;;15.60;100.00
64192;BME280;50497;50.720;-2.084;2022-08-14T04:24:37;100745.00;;;15.50;100.00
64192;BME280;50497;50.720;-2.084;2022-08-14T04:27:03;100745.19;;;15.47;100.00
64192;BME280;50497;50.720;-2.084;2022-08-14T04:29:28;100749.31;;;15.52;100.00
64192;BME280;50497;50.720;-2.084;2022-08-14T04:31:57;100752.78;;;15.55;100.00
64192;BME280;50497;50.720;-2.084;2022-08-14T04:34:26;100746.28;;;15.57;100.00
64192;BME280;50497;50.720;-2.084;2022-08-14T04:36:52;100743.06;;;15.52;100.00
64192;BME280;50497;50.720;-2.084;2022-08-14T04:39:36;100749.09;;;15.43;100.00
64192;BME280;50497;50.720;-2.084;2022-08-14T04:42:20;100738.94;;;15.46;100.00
64192;BME280;50497;50.720;-2.084;2022-08-14T04:45:04;100731.16;;;15.42;100.00
64192;BME280;50497;50.720;-2.084;2022-08-14T04:47:30;100731.81;;;15.32;100.00
64192;BME280;50497;50.720;-2.084;2022-08-14T04:50:13;100743.50;;;15.46;100.00
64192;BME280;50497;50.720;-2.084;2022-08-14T04:52:39;100743.50;;;15.46;100.00
64192;BME280;50497;50.720;-2.084;2022-08-14T04:55:04;100745.19;;;15.47;100.00
64192;BME280;50497;50.720;-2.084;2022-08-14T04:57:31;100740.91;;;15.44;100.00
64192;BME280;50497;50.720;-2.084;2022-08-14T04:59:57;100729.47;;;15.41;100.00
64192;BME280;50497;50.720;-2.084;2022-08-14T05:02:22;100732.91;;;15.43;100.00
64192;BME280;50497;50.720;-2.084;2022-08-14T05:04:48;100726.88;;;15.39;100.00
64192;BME280;50497;50.720;-2.084;2022-08-14T05:07:15;100736.16;;;15.48;100.00
64192;BME280;50497;50.720;-2.084;2022-08-14T05:09:40;100724.06;;;15.41;100.00
64192;BME280;50497;50.720;-2.084;2022-08-14T05:12:06;100732.50;;;15.49;100.00
64192;BME280;50497;50.720;-2.084;2022-08-14T05:14:31;100731.50;;;15.50;100.00
64192;BME280;50497;50.720;-2.084;2022-08-14T05:16:57;100734.22;;;15.50;100.00
64192;BME280;50497;50.720;-2.084;2022-08-14T05:19:23;100729.47;;;15.53;100.00
64192;BME280;50497;50.720;-2.084;2022-08-14T05:21:52;100731.19;;;15.55;100.00
64192;BME280;50497;50.720;-2.084;2022-08-14T05:24:20;100743.06;;;15.52;100.00
64192;BME280;50497;50.720;-2.084;2022-08-14T05:26:46;100736.16;;;15.48;100.00
64192;BME280;50497;50.720;-2.084;2022-08-14T05:29:11;100720.38;;;15.42;100.00
64192;BME280;50497;50.720;-2.084;2022-08-14T05:31:41;100724.72;;;15.57;100.00
64192;BME280;50497;50.720;-2.084;2022-08-14T05:34:07;100719.91;;;15.62;100.00
64192;BME280;50497;50.720;-2.084;2022-08-14T05:36:35;100728.63;;;15.66;100.00
64192;BME280;50497;50.720;-2.084;2022-08-14T05:39:00;100725.94;;;15.66;100.00
64192;BME280;50497;50.720;-2.084;2022-08-14T05:41:26;100731.34;;;15.66;100.00
64192;BME280;50497;50.720;-2.084;2022-08-14T05:43:51;100723.69;;;15.73;100.00
64192;BME280;50497;50.720;-2.084;2022-08-14T05:46:18;100732.34;;;15.78;100.00
64192;BME280;50497;50.720;-2.084;2022-08-14T05:48:49;100734.06;;;15.92;100.00
64192;BME280;50497;50.720;-2.084;2022-08-14T05:51:19;100733.22;;;15.91;100.00
64192;BME280;50497;50.720;-2.084;2022-08-14T05:53:45;100725.66;;;15.96;100.00
64192;BME280;50497;50.720;-2.084;2022-08-14T05:56:11;100730.31;;;15.94;100.00
64192;BME280;50497;50.720;-2.084;2022-08-14T05:58:39;100722.66;;;16.01;100.00
64192;BME280;50497;50.720;-2.084;2022-08-14T06:01:05;100731.81;;;16.11;100.00
64192;BME280;50497;50.720;-2.084;2022-08-14T06:03:31;100721.88;;;16.12;100.00
64192;BME280;50497;50.720;-2.084;2022-08-14T06:05:56;100730.81;;;16.25;100.00
64192;BME280;50497;50.720;-2.084;2022-08-14T06:08:29;100726.06;;;16.41;100.00
64192;BME280;50497;50.720;-2.084;2022-08-14T06:10:57;100737.16;;;16.50;100.00
64192;BME280;50497;50.720;-2.084;2022-08-14T06:13:35;100734.25;;;16.53;100.00
64192;BME280;50497;50.720;-2.084;2022-08-14T06:16:01;100728.19;;;16.62;100.00
64192;BME280;50497;50.720;-2.084;2022-08-14T06:18:28;100730.78;;;16.63;100.00
64192;BME280;50497;50.720;-2.084;2022-08-14T06:20:53;100732.22;;;16.80;100.00
64192;BME280;50497;50.720;-2.084;2022-08-14T06:23:19;100718.41;;;16.85;100.00
64192;BME280;50497;50.720;-2.084;2022-08-14T06:25:45;100721.97;;;16.86;100.00
64192;BME280;50497;50.720;-2.084;2022-08-14T06:28:18;100744.00;;;17.16;100.00
64192;BME280;50497;50.720;-2.084;2022-08-14T06:30:44;100729.44;;;17.30;100.00
64192;BME280;50497;50.720;-2.084;2022-08-14T06:33:09;100731.56;;;17.38;100.00
64192;BME280;50497;50.720;-2.084;2022-08-14T06:35:35;100727.53;;;17.44;100.00
64192;BME280;50497;50.720;-2.084;2022-08-14T06:38:00;100722.75;;;17.47;100.00
64192;BME280;50497;50.720;-2.084;2022-08-14T06:40:31;100718.13;;;17.61;100.00
64192;BME280;50497;50.720;-2.084;2022-08-14T06:43:03;100720.63;;;17.75;100.00
64192;BME280;50497;50.720;-2.084;2022-08-14T06:45:30;100725.09;;;17.87;100.00
64192;BME280;50497;50.720;-2.084;2022-08-14T06:47:56;100722.66;;;18.07;100.00
64192;BME280;50497;50.720;-2.084;2022-08-14T06:50:22;100726.00;;;18.22;100.00
64192;BME280;50497;50.720;-2.084;2022-08-14T06:52:51;100718.72;;;18.34;100.00
64192;BME280;50497;50.720;-2.084;2022-08-14T06:55:18;100721.19;;;18.48;100.00
64192;BME280;50497;50.720;-2.084;2022-08-14T06:57:45;100710.59;;;18.56;100.00
64192;BME280;50497;50.720;-2.084;2022-08-14T07:00:17;100713.03;;;18.71;100.00
64192;BME280;50497;50.720;-2.084;2022-08-14T07:02:43;100711.16;;;18.94;100.00
64192;BME280;50497;50.720;-2.084;2022-08-14T07:05:27;100719.78;;;19.31;100.00
64192;BME280;50497;50.720;-2.084;2022-08-14T07:08:25;100722.09;;;19.89;100.00
64192;BME280;50497;50.720;-2.084;2022-08-14T07:10:53;100713.19;;;20.39;100.00
64192;BME280;50497;50.720;-2.084;2022-08-14T07:13:23;100708.91;;;20.77;100.00
64192;BME280;50497;50.720;-2.084;2022-08-14T07:15:52;100694.47;;;21.16;100.00
64192;BME280;50497;50.720;-2.084;2022-08-14T07:18:27;100707.34;;;21.43;100.00
64192;BME280;50497;50.720;-2.084;2022-08-14T07:20:59;100700.56;;;21.96;100.00
64192;BME280;50497;50.720;-2.084;2022-08-14T07:23:25;100698.41;;;22.47;100.00
64192;BME280;50497;50.720;-2.084;2022-08-14T07:25:54;100703.59;;;22.86;100.00
64192;BME280;50497;50.720;-2.084;2022-08-14T07:28:39;100686.00;;;23.26;100.00
64192;BME280;50497;50.720;-2.084;2022-08-14T07:31:08;100698.19;;;23.58;100.00
64192;BME280;50497;50.720;-2.084;2022-08-14T07:33:41;100687.66;;;24.15;95.34
64192;BME280;50497;50.720;-2.084;2022-08-14T07:36:09;100693.84;;;24.17;96.29
64192;BME280;50497;50.720;-2.084;2022-08-14T07:38:35;100678.00;;;24.64;92.53
64192;BME280;50497;50.720;-2.084;2022-08-14T07:41:03;100656.88;;;24.99;88.72
64192;BME280;50497;50.720;-2.084;2022-08-14T07:43:29;100673.28;;;25.23;86.10
64192;BME280;50497;50.720;-2.084;2022-08-14T07:45:55;100672.31;;;25.49;81.09
64192;BME280;50497;50.720;-2.084;2022-08-14T07:48:21;100671.63;;;25.47;79.22
64192;BME280;50497;50.720;-2.084;2022-08-14T07:50:47;100658.97;;;25.46;80.73
64192;BME280;50497;50.720;-2.084;2022-08-14T07:53:15;100667.19;;;25.46;78.09
64192;BME280;50497;50.720;-2.084;2022-08-14T07:55:41;100671.75;;;25.95;77.57
64192;BME280;50497;50.720;-2.084;2022-08-14T07:58:07;100661.00;;;25.69;76.76
64192;BME280;50497;50.720;-2.084;2022-08-14T08:00:32;100663.00;;;25.99;75.54
64192;BME280;50497;50.720;-2.084;2022-08-14T08:02:58;100653.94;;;26.47;76.43
64192;BME280;50497;50.720;-2.084;2022-08-14T08:05:24;100650.25;;;26.31;74.04
64192;BME280;50497;50.720;-2.084;2022-08-14T08:07:52;100648.38;;;26.63;71.57
64192;BME280;50497;50.720;-2.084;2022-08-14T08:10:24;100647.25;;;26.81;68.52
64192;BME280;50497;50.720;-2.084;2022-08-14T08:13:12;100637.09;;;27.51;68.40
64192;BME280;50497;50.720;-2.084;2022-08-14T08:15:52;100634.84;;;27.69;63.37
64192;BME280;50497;50.720;-2.084;2022-08-14T08:18:22;100625.91;;;28.05;62.56
64192;BME280;50497;50.720;-2.084;2022-08-14T08:20:50;100639.72;;;28.27;61.98
64192;BME280;50497;50.720;-2.084;2022-08-14T08:23:18;100660.72;;;28.13;62.29
64192;BME280;50497;50.720;-2.084;2022-08-14T08:25:46;100657.22;;;28.04;61.66
64192;BME280;50497;50.720;-2.084;2022-08-14T08:28:16;100648.06;;;27.89;63.50
64192;BME280;50497;50.720;-2.084;2022-08-14T08:30:52;100635.28;;;28.26;61.91
64192;BME280;50497;50.720;-2.084;2022-08-14T08:33:22;100632.28;;;28.93;58.14
64192;BME280;50497;50.720;-2.084;2022-08-14T08:35:50;100637.28;;;29.26;54.64
64192;BME280;50497;50.720;-2.084;2022-08-14T08:38:18;100633.09;;;29.09;55.36
64192;BME280;50497;50.720;-2.084;2022-08-14T08:40:46;100621.34;;;29.50;53.17
64192;BME280;50497;50.720;-2.084;2022-08-14T08:43:30;100624.72;;;29.17;56.52
64192;BME280;50497;50.720;-2.084;2022-08-14T08:46:08;100627.41;;;29.89;53.37
64192;BME280;50497;50.720;-2.084;2022-08-14T08:51:33;100612.50;;;29.83;51.64
64192;BME280;50497;50.720;-2.084;2022-08-14T08:54:08;100616.00;;;29.98;53.01
64192;BME280;50497;50.720;-2.084;2022-08-14T08:56:44;100616.28;;;30.52;49.79
64192;BME280;50497;50.720;-2.084;2022-08-14T08:59:21;100610.66;;;30.32;50.08
64192;BME280;50497;50.720;-2.084;2022-08-14T09:01:49;100602.34;;;30.93;48.25
64192;BME280;50497;50.720;-2.084;2022-08-14T09:04:17;100610.06;;;31.65;49.54
64192;BME280;50497;50.720;-2.084;2022-08-14T09:06:47;100606.44;;;31.51;45.86
64192;BME280;50497;50.720;-2.084;2022-08-14T09:09:24;100605.34;;;30.99;45.19
64192;BME280;50497;50.720;-2.084;2022-08-14T09:11:54;100606.56;;;30.89;45.88
64192;BME280;50497;50.720;-2.084;2022-08-14T09:14:25;100601.34;;;31.28;44.25
64192;BME280;50497;50.720;-2.084;2022-08-14T09:16:52;100596.66;;;31.22;44.79
64192;BME280;50497;50.720;-2.084;2022-08-14T09:19:18;100602.81;;;31.50;45.26
64192;BME280;50497;50.720;-2.084;2022-08-14T09:21:47;100595.81;;;31.55;43.33
64192;BME280;50497;50.720;-2.084;2022-08-14T09:24:13;100598.06;;;30.84;43.59
64192;BME280;50497;50.720;-2.084;2022-08-14T09:26:41;100599.41;;;31.48;43.93
64192;BME280;50497;50.720;-2.084;2022-08-14T09:29:10;100600.25;;;31.09;44.69
64192;BME280;50497;50.720;-2.084;2022-08-14T09:31:42;100604.09;;;31.41;43.67
64192;BME280;50497;50.720;-2.084;2022-08-14T09:37:27;100609.59;;;31.14;45.00
64192;BME280;50497;50.720;-2.084;2022-08-14T09:40:04;100604.63;;;30.63;46.35
64192;BME280;50497;50.720;-2.084;2022-08-14T09:42:43;100592.53;;;30.77;43.99
64192;BME280;50497;50.720;-2.084;2022-08-14T09:47:51;100593.88;;;31.02;45.11
64192;BME280;50497;50.720;-2.084;2022-08-14T09:50:28;100600.47;;;31.34;44.16
64192;BME280;50497;50.720;-2.084;2022-08-14T09:53:03;100587.97;;;31.52;44.94
64192;BME280;50497;50.720;-2.084;2022-08-14T09:55:31;100589.63;;;31.79;42.78
64192;BME280;50497;50.720;-2.084;2022-08-14T10:00:50;100593.13;;;32.20;40.74
64192;BME280;50497;50.720;-2.084;2022-08-14T10:03:28;100591.75;;;31.24;43.02
64192;BME280;50497;50.720;-2.084;2022-08-14T10:06:08;100587.44;;;30.74;44.94
64192;BME280;50497;50.720;-2.084;2022-08-14T10:08:51;100585.56;;;30.82;44.77
64192;BME280;50497;50.720;-2.084;2022-08-14T10:11:21;100595.16;;;31.32;44.38
64192;BME280;50497;50.720;-2.084;2022-08-14T10:13:50;100593.91;;;31.22;47.84
64192;BME280;50497;50.720;-2.084;2022-08-14T10:16:27;100590.28;;;31.61;43.79
64192;BME280;50497;50.720;-2.084;2022-08-14T10:19:09;100595.81;;;31.41;45.66
64192;BME280;50497;50.720;-2.084;2022-08-14T10:21:36;100587.94;;;31.18;47.59
64192;BME280;50497;50.720;-2.084;2022-08-14T10:24:03;100586.03;;;31.59;45.63
64192;BME280;50497;50.720;-2.084;2022-08-14T10:26:34;100592.16;;;31.47;43.89
64192;BME280;50497;50.720;-2.084;2022-08-14T10:29:08;100579.88;;;31.57;45.65
64192;BME280;50497;50.720;-2.084;2022-08-14T10:31:35;100577.31;;;31.28;44.86
64192;BME280;50497;50.720;-2.084;2022-08-14T10:34:06;100575.31;;;31.82;44.17
64192;BME280;50497;50.720;-2.084;2022-08-14T10:36:40;100570.84;;;31.88;43.15
64192;BME280;50497;50.720;-2.084;2022-08-14T10:39:16;100570.16;;;32.13;43.18
64192;BME280;50497;50.720;-2.084;2022-08-14T10:41:43;100563.53;;;32.14;43.34
64192;BME280;50497;50.720;-2.084;2022-08-14T10:44:17;100572.56;;;31.82;42.63
64192;BME280;50497;50.720;-2.084;2022-08-14T10:46:53;100568.34;;;31.66;43.91
64192;BME280;50497;50.720;-2.084;2022-08-14T10:49:24;100559.00;;;31.34;45.78
64192;BME280;50497;50.720;-2.084;2022-08-14T10:52:04;100563.28;;;31.30;45.17
64192;BME280;50497;50.720;-2.084;2022-08-14T11:00:27;100552.63;;;31.34;44.18
64192;BME280;50497;50.720;-2.084;2022-08-14T11:02:40;100545.94;;;31.95;43.77
64192;BME280;50497;50.720;-2.084;2022-08-14T11:05:10;100558.00;;;32.14;42.39
64192;BME280;50497;50.720;-2.084;2022-08-14T11:07:59;100540.19;;;32.80;42.42
64192;BME280;50497;50.720;-2.084;2022-08-14T11:10:52;100537.47;;;33.24;42.13
64192;BME280;50497;50.720;-2.084;2022-08-14T11:13:22;100524.00;;;33.53;41.74
64192;BME280;50497;50.720;-2.084;2022-08-14T11:15:49;100527.88;;;33.70;41.94
64192;BME280;50497;50.720;-2.084;2022-08-14T11:18:16;100525.06;;;33.88;40.83
64192;BME280;50497;50.720;-2.084;2022-08-14T11:20:47;100524.25;;;33.69;38.82
64192;BME280;50497;50.720;-2.084;2022-08-14T11:23:14;100506.97;;;33.67;40.41
64192;BME280;50497;50.720;-2.084;2022-08-14T11:25:43;100525.28;;;34.54;40.31
64192;BME280;50497;50.720;-2.084;2022-08-14T11:28:12;100516.22;;;33.80;41.97
64192;BME280;50497;50.720;-2.084;2022-08-14T11:30:41;100527.81;;;33.95;41.73
64192;BME280;50497;50.720;-2.084;2022-08-14T11:33:09;100516.91;;;34.12;40.74
64192;BME280;50497;50.720;-2.084;2022-08-14T11:35:35;100517.06;;;34.48;40.48
64192;BME280;50497;50.720;-2.084;2022-08-14T11:38:04;100527.16;;;34.30;40.21
64192;BME280;50497;50.720;-2.084;2022-08-14T11:40:32;100529.56;;;33.71;42.12
64192;BME280;50497;50.720;-2.084;2022-08-14T11:43:00;100530.63;;;33.70;44.14
64192;BME280;50497;50.720;-2.084;2022-08-14T11:45:28;100540.31;;;33.17;42.77
64192;BME280;50497;50.720;-2.084;2022-08-14T11:47:58;100543.97;;;32.47;49.81
64192;BME280;50497;50.720;-2.084;2022-08-14T11:50:28;100546.97;;;32.07;48.78
64192;BME280;50497;50.720;-2.084;2022-08-14T11:52:56;100527.03;;;32.69;45.23
64192;BME280;50497;50.720;-2.084;2022-08-14T11:55:23;100532.91;;;32.47;46.71
64192;BME280;50497;50.720;-2.084;2022-08-14T11:58:15;100528.84;;;32.50;43.21
64192;BME280;50497;50.720;-2.084;2022-08-14T12:00:55;100525.69;;;32.08;42.15
64192;BME280;50497;50.720;-2.084;2022-08-14T12:03:37;100532.03;;;32.85;42.89
64192;BME280;50497;50.720;-2.084;2022-08-14T12:06:11;100529.53;;;33.02;42.47
64192;BME280;50497;50.720;-2.084;2022-08-14T12:08:37;100528.50;;;32.39;42.30
64192;BME280;50497;50.720;-2.084;2022-08-14T12:11:04;100507.41;;;33.27;43.00
64192;BME280;50497;50.720;-2.084;2022-08-14T12:13:34;100524.25;;;33.26;40.06
64192;BME280;50497;50.720;-2.084;2022-08-14T12:16:05;100513.81;;;33.65;43.17
64192;BME280;50497;50.720;-2.084;2022-08-14T12:18:32;100502.69;;;34.20;39.56
64192;BME280;50497;50.720;-2.084;2022-08-14T12:21:22;100506.72;;;34.24;33.91
64192;BME280;50497;50.720;-2.084;2022-08-14T12:24:05;100507.16;;;35.06;33.56
64192;BME280;50497;50.720;-2.084;2022-08-14T12:26:31;100493.50;;;34.81;32.83
64192;BME280;50497;50.720;-2.084;2022-08-14T12:29:13;100485.50;;;34.72;33.20
64192;BME280;50497;50.720;-2.084;2022-08-14T12:31:42;100484.66;;;35.78;35.22
64192;BME280;50497;50.720;-2.084;2022-08-14T12:34:11;100475.41;;;36.18;32.55
64192;BME280;50497;50.720;-2.084;2022-08-14T12:36:37;100468.06;;;36.12;31.28
64192;BME280;50497;50.720;-2.084;2022-08-14T12:39:15;100460.16;;;36.50;31.28
64192;BME280;50497;50.720;-2.084;2022-08-14T12:41:48;100475.88;;;36.27;31.00
64192;BME280;50497;50.720;-2.084;2022-08-14T12:44:39;100463.81;;;35.81;32.64
64192;BME280;50497;50.720;-2.084;2022-08-14T12:47:09;100472.31;;;35.62;35.24
64192;BME280;50497;50.720;-2.084;2022-08-14T12:49:37;100459.75;;;35.48;36.50
64192;BME280;50497;50.720;-2.084;2022-08-14T12:52:03;100455.06;;;35.01;34.26
64192;BME280;50497;50.720;-2.084;2022-08-14T12:54:32;100448.09;;;35.86;33.20
64192;BME280;50497;50.720;-2.084;2022-08-14T12:57:11;100462.09;;;36.20;34.63
64192;BME280;50497;50.720;-2.084;2022-08-14T12:59:38;100453.44;;;36.05;34.32
64192;BME280;50497;50.720;-2.084;2022-08-14T13:02:03;100450.84;;;36.44;35.63